createdAt,value
2022-08-24T00:02:05.147Z,101671.00
2022-08-24T00:04:32.432Z,101689.09
2022-08-24T00:07:00.007Z,101681.56
2022-08-24T00:09:26.639Z,101650.81
2022-08-24T00:11:53.196Z,101678.56
2022-08-24T00:14:19.725Z,101676.16
2022-08-24T00:16:46.844Z,101676.38
2022-08-24T00:19:13.472Z,101677.13
2022-08-24T00:21:39.997Z,101676.22
2022-08-24T00:24:06.575Z,101676.63
2022-08-24T00:26:35.152Z,101689.25
2022-08-24T00:29:06.831Z,101680.00
2022-08-24T00:31:34.310Z,101678.03
2022-08-24T00:34:01.063Z,101677.94
2022-08-24T00:36:27.701Z,101679.16
2022-08-24T00:38:54.282Z,101666.19
2022-08-24T00:41:20.810Z,101679.09
2022-08-24T00:43:55.518Z,101673.19
2022-08-24T00:46:30.942Z,101681.06
2022-08-24T00:49:23.962Z,101665.91
2022-08-24T00:52:10.276Z,101682.28
2022-08-24T00:54:45.950Z,101687.63
2022-08-24T00:57:17.212Z,101674.34
2022-08-24T00:59:48.023Z,101696.72
2022-08-24T01:02:19.691Z,101698.13
2022-08-24T01:04:54.647Z,101694.25
2022-08-24T01:07:24.620Z,101689.59
2022-08-24T01:09:56.542Z,101694.56
2022-08-24T01:12:25.280Z,101682.50
2022-08-24T01:14:52.098Z,101695.88
2022-08-24T01:17:39.206Z,101689.50
2022-08-24T01:20:08.609Z,101687.47
2022-08-24T01:22:47.612Z,101669.31
2022-08-24T01:25:14.106Z,101690.75
2022-08-24T01:27:41.938Z,101696.72
2022-08-24T01:30:13.559Z,101681.94
2022-08-24T01:32:41.559Z,101693.72
2022-08-24T01:35:09.195Z,101697.34
2022-08-24T01:37:36.153Z,101692.41
2022-08-24T01:40:07.304Z,101707.44
2022-08-24T01:42:34.938Z,101699.91
2022-08-24T01:45:02.814Z,101686.34
2022-08-24T01:47:29.241Z,101693.44
2022-08-24T01:49:55.713Z,101698.69
2022-08-24T01:52:25.987Z,101686.34
2022-08-24T01:54:53.101Z,101687.00
2022-08-24T01:57:23.478Z,101692.22
2022-08-24T01:59:49.946Z,101690.16
2022-08-24T02:02:24.424Z,101689.31
2022-08-24T02:04:50.892Z,101692.03
2022-08-24T02:07:18.389Z,101679.97
2022-08-24T02:09:45.049Z,101684.16
2022-08-24T02:12:12.086Z,101695.50
2022-08-24T02:14:38.556Z,101703.63
2022-08-24T02:17:07.378Z,101706.69
2022-08-24T02:19:34.367Z,101709.41
2022-08-24T02:22:01.332Z,101694.03
2022-08-24T02:24:29.116Z,101706.38
2022-08-24T02:26:56.380Z,101708.06
2022-08-24T02:29:22.988Z,101705.53
2022-08-24T02:31:49.606Z,101697.84
2022-08-24T02:34:16.587Z,101717.97
2022-08-24T02:36:43.256Z,101714.78
2022-08-24T02:39:10.148Z,101713.63
2022-08-24T02:41:37.646Z,101715.31
2022-08-24T02:44:05.180Z,101717.75
2022-08-24T02:46:31.707Z,101709.47
2022-08-24T02:49:10.153Z,101713.53
2022-08-24T02:51:43.881Z,101712.41
2022-08-24T02:54:13.287Z,101709.97
2022-08-24T02:56:39.756Z,101709.84
2022-08-24T02:59:06.438Z,101717.97
2022-08-24T03:01:32.948Z,101707.47
2022-08-24T03:03:59.526Z,101709.84
2022-08-24T03:06:26.023Z,101695.34
2022-08-24T03:08:54.709Z,101712.19
2022-08-24T03:11:27.930Z,101713.69
2022-08-24T03:13:56.078Z,101713.88
2022-08-24T03:16:22.919Z,101716.22
2022-08-24T03:18:49.617Z,101709.78
2022-08-24T03:21:16.260Z,101717.75
2022-08-24T03:23:43.034Z,101711.47
2022-08-24T03:26:10.391Z,101714.19
2022-08-24T03:28:36.890Z,101719.44
2022-08-24T03:31:04.047Z,101721.09
2022-08-24T03:33:31.117Z,101721.94
2022-08-24T03:35:57.710Z,101707.97
2022-08-24T03:38:24.359Z,101716.91
2022-08-24T03:40:50.818Z,101704.97
2022-08-24T03:43:36.703Z,101721.81
2022-08-24T03:46:07.414Z,101719.47
2022-08-24T03:48:34.489Z,101716.84
2022-08-24T03:51:01.452Z,101719.91
2022-08-24T03:53:27.902Z,101712.84
2022-08-24T03:55:54.361Z,101698.50
2022-08-24T03:58:20.827Z,101698.34
2022-08-24T04:00:47.346Z,101700.78
2022-08-24T04:03:14.202Z,101725.06
2022-08-24T04:05:42.325Z,101730.38
2022-08-24T04:08:09.637Z,101720.75
2022-08-24T04:10:36.539Z,101728.69
2022-08-24T04:13:03.109Z,101732.13
2022-08-24T04:15:31.690Z,101734.16
2022-08-24T04:17:58.566Z,101731.97
2022-08-24T04:20:25.808Z,101726.25
2022-08-24T04:22:53.580Z,101724.09
2022-08-24T04:25:24.692Z,101726.47
2022-08-24T04:27:51.905Z,101720.56
2022-08-24T04:30:18.623Z,101725.47
2022-08-24T04:32:45.313Z,101717.06
2022-08-24T04:35:12.609Z,101711.66
2022-08-24T04:37:39.023Z,101705.56
2022-08-24T04:40:08.048Z,101712.00
2022-08-24T04:42:34.955Z,101716.91
2022-08-24T04:45:01.469Z,101722.81
2022-08-24T04:47:28.007Z,101721.81
2022-08-24T04:49:54.474Z,101723.16
2022-08-24T04:52:21.046Z,101732.28
2022-08-24T04:54:47.571Z,101736.84
2022-08-24T04:57:17.904Z,101729.72
2022-08-24T04:59:44.946Z,101736.78
2022-08-24T05:02:11.486Z,101727.66
2022-08-24T05:04:38.255Z,101739.81
2022-08-24T05:07:05.607Z,101746.56
2022-08-24T05:09:32.286Z,101747.03
2022-08-24T05:11:58.773Z,101741.00
2022-08-24T05:14:28.825Z,101752.78
2022-08-24T05:16:55.828Z,101760.38
2022-08-24T05:19:23.770Z,101756.50
2022-08-24T05:21:50.797Z,101757.81
2022-08-24T05:24:18.344Z,101761.69
2022-08-24T05:26:45.426Z,101767.59
2022-08-24T05:29:11.908Z,101747.16
2022-08-24T05:31:38.502Z,101772.28
2022-08-24T05:34:05.648Z,101758.06
2022-08-24T05:36:38.068Z,101777.97
2022-08-24T05:39:11.374Z,101782.69
2022-08-24T05:41:44.234Z,101782.00
2022-08-24T05:44:12.204Z,101782.94
2022-08-24T05:46:38.623Z,101774.97
2022-08-24T05:49:05.633Z,101786.06
2022-08-24T05:51:32.277Z,101784.59
2022-08-24T05:53:59.293Z,101784.34
2022-08-24T05:56:31.295Z,101768.47
2022-08-24T05:58:58.429Z,101764.66
2022-08-24T06:01:27.067Z,101789.59
2022-08-24T06:03:55.005Z,101798.69
2022-08-24T06:06:23.079Z,101796.09
2022-08-24T06:08:53.043Z,101805.38
2022-08-24T06:11:24.731Z,101798.16
2022-08-24T06:14:07.278Z,101790.50
2022-08-24T06:16:36.510Z,101800.41
2022-08-24T06:19:04.380Z,101794.63
2022-08-24T06:21:31.725Z,101801.84
2022-08-24T06:23:59.395Z,101790.34
2022-08-24T06:26:50.208Z,101788.84
2022-08-24T06:29:17.971Z,101806.16
2022-08-24T06:31:46.554Z,101809.66
2022-08-24T06:34:15.162Z,101807.84
2022-08-24T06:36:42.000Z,101798.50
2022-08-24T06:39:10.229Z,101798.28
2022-08-24T06:41:40.508Z,101801.72
2022-08-24T06:44:07.703Z,101800.75
2022-08-24T06:46:36.398Z,101800.09
2022-08-24T06:49:03.400Z,101811.91
2022-08-24T06:51:30.193Z,101813.25
2022-08-24T06:53:56.691Z,101814.84
2022-08-24T06:56:23.230Z,101806.56
2022-08-24T06:58:50.200Z,101810.91
2022-08-24T07:01:19.562Z,101813.16
2022-08-24T07:03:46.575Z,101814.94
2022-08-24T07:06:14.287Z,101817.56
2022-08-24T07:08:42.465Z,101813.09
2022-08-24T07:11:10.097Z,101816.50
2022-08-24T07:13:36.627Z,101819.50
2022-08-24T07:16:04.719Z,101820.44
2022-08-24T07:18:31.310Z,101831.78
2022-08-24T07:21:00.399Z,101831.59
2022-08-24T07:23:41.799Z,101825.16
2022-08-24T07:26:21.655Z,101827.94
2022-08-24T07:28:51.478Z,101829.91
2022-08-24T07:31:17.986Z,101823.81
2022-08-24T07:33:45.078Z,101815.44
2022-08-24T07:36:11.534Z,101838.13
2022-08-24T07:38:46.576Z,101815.91
2022-08-24T07:41:38.206Z,101845.50
2022-08-24T07:44:00.838Z,101848.66
2022-08-24T07:46:27.285Z,101841.38
2022-08-24T07:49:04.975Z,101842.66
2022-08-24T07:51:44.813Z,101842.66
2022-08-24T07:54:13.489Z,101835.94
2022-08-24T07:56:41.840Z,101847.09
2022-08-24T07:59:12.444Z,101832.16
2022-08-24T08:01:40.596Z,101831.75
2022-08-24T08:04:07.812Z,101848.78
2022-08-24T08:06:34.525Z,101845.22
2022-08-24T08:09:02.562Z,101852.75
2022-08-24T08:11:28.978Z,101852.53
2022-08-24T08:13:55.438Z,101845.78
2022-08-24T08:16:21.973Z,101854.81
2022-08-24T08:18:52.420Z,101855.00
2022-08-24T08:21:51.047Z,101843.81
2022-08-24T08:24:20.455Z,101860.59
2022-08-24T08:26:52.799Z,101864.97
2022-08-24T08:29:20.230Z,101869.59
2022-08-24T08:31:46.818Z,101821.44
2022-08-24T08:34:13.665Z,101860.19
2022-08-24T08:36:41.041Z,101855.47
2022-08-24T08:39:09.818Z,101835.47
2022-08-24T08:41:46.816Z,101862.22
2022-08-24T08:44:21.016Z,101847.88
2022-08-24T08:46:50.297Z,101854.53
2022-08-24T08:49:38.342Z,101856.69
2022-08-24T08:52:31.032Z,101858.59
2022-08-24T08:55:03.702Z,101859.13
2022-08-24T08:58:00.379Z,101852.13
2022-08-24T09:00:53.912Z,101854.34
2022-08-24T09:04:08.349Z,101863.03
2022-08-24T09:07:00.956Z,101849.78
2022-08-24T09:09:48.493Z,101858.03
2022-08-24T09:12:31.380Z,101855.59
2022-08-24T09:15:06.411Z,101847.28
2022-08-24T09:17:32.806Z,101858.69
2022-08-24T09:20:24.237Z,101856.13
2022-08-24T09:23:02.022Z,101841.47
2022-08-24T09:25:47.997Z,101853.88
2022-08-24T09:28:32.800Z,101860.34
2022-08-24T09:31:26.217Z,101853.56
2022-08-24T09:34:06.490Z,101841.34
2022-08-24T09:36:59.390Z,101839.69
2022-08-24T09:39:31.909Z,101844.59
2022-08-24T09:42:01.060Z,101841.03
2022-08-24T09:44:30.566Z,101842.59
2022-08-24T09:47:15.622Z,101853.31
2022-08-24T09:50:06.719Z,101836.50
2022-08-24T09:52:57.910Z,101834.69
2022-08-24T09:55:58.934Z,101828.50
2022-08-24T09:58:34.327Z,101843.34
2022-08-24T10:01:41.742Z,101840.56
2022-08-24T10:04:36.651Z,101834.25
2022-08-24T10:07:12.364Z,101842.31
2022-08-24T10:10:23.360Z,101839.59
2022-08-24T10:13:04.865Z,101831.72
2022-08-24T10:15:46.966Z,101840.03
2022-08-24T10:18:47.421Z,101819.56
2022-08-24T10:21:26.818Z,101830.94
2022-08-24T10:24:31.410Z,101833.97
2022-08-24T10:27:09.382Z,101827.38
2022-08-24T10:30:09.983Z,101835.50
2022-08-24T10:33:09.025Z,101825.81
2022-08-24T10:35:46.270Z,101823.63
2022-08-24T10:38:53.465Z,101830.00
2022-08-24T10:41:44.088Z,101822.53
2022-08-24T10:44:31.965Z,101823.66
2022-08-24T10:47:01.123Z,101816.47
2022-08-24T10:49:48.561Z,101814.00
2022-08-24T10:52:42.974Z,101819.53
2022-08-24T10:55:22.423Z,101824.53
2022-08-24T10:58:10.887Z,101814.50
2022-08-24T11:00:37.676Z,101814.78
2022-08-24T11:03:14.357Z,101805.88
2022-08-24T11:05:50.148Z,101799.22
2022-08-24T11:08:19.921Z,101799.50
2022-08-24T11:11:02.766Z,101807.84
2022-08-24T11:13:29.454Z,101809.47
2022-08-24T11:15:59.262Z,101808.91
2022-08-24T11:18:26.922Z,101785.13
2022-08-24T11:20:55.381Z,101799.78
2022-08-24T11:23:34.443Z,101811.91
2022-08-24T11:26:13.320Z,101802.38
2022-08-24T11:28:50.660Z,101805.16
2022-08-24T11:31:27.609Z,101810.41
2022-08-24T11:34:04.692Z,101788.47
2022-08-24T11:36:36.211Z,101801.72
2022-08-24T11:39:11.466Z,101800.31
2022-08-24T11:41:47.402Z,101799.16
2022-08-24T11:44:49.924Z,101799.63
2022-08-24T11:47:30.364Z,101802.97
2022-08-24T11:50:08.528Z,101799.97
2022-08-24T11:53:11.141Z,101798.00
2022-08-24T11:56:00.702Z,101796.31
2022-08-24T11:58:45.898Z,101809.88
2022-08-24T12:01:19.301Z,101806.00
2022-08-24T12:04:03.791Z,101808.69
2022-08-24T12:06:50.431Z,101802.38
2022-08-24T12:09:37.123Z,101800.03
2022-08-24T12:12:14.698Z,101790.00
2022-08-24T12:14:56.528Z,101783.66
2022-08-24T12:17:30.675Z,101792.19
2022-08-24T12:20:09.424Z,101795.78
2022-08-24T12:22:36.327Z,101798.53
2022-08-24T12:25:24.876Z,101775.13
2022-08-24T12:27:54.065Z,101797.03
2022-08-24T12:30:20.659Z,101777.03
2022-08-24T12:32:58.079Z,101794.41
2022-08-24T12:35:29.822Z,101785.81
2022-08-24T12:38:15.401Z,101791.50
2022-08-24T12:41:14.559Z,101780.56
2022-08-24T12:43:51.787Z,101787.84
2022-08-24T12:46:22.795Z,101786.94
2022-08-24T12:48:59.730Z,101778.81
2022-08-24T12:51:34.730Z,101768.72
2022-08-24T12:54:23.083Z,101789.78
2022-08-24T12:57:29.806Z,101712.59
2022-08-24T13:00:03.531Z,101730.31
2022-08-24T13:02:39.575Z,101786.47
2022-08-24T13:05:18.629Z,101785.75
2022-08-24T13:07:48.809Z,101783.34
2022-08-24T13:10:37.803Z,101777.00
2022-08-24T13:13:04.141Z,101790.44
2022-08-24T13:15:30.564Z,101788.50
2022-08-24T13:18:03.327Z,101780.69
2022-08-24T13:20:50.160Z,101779.25
2022-08-24T13:23:24.944Z,101774.63
2022-08-24T13:25:58.772Z,101782.94
2022-08-24T13:28:25.414Z,101782.34
2022-08-24T13:31:22.606Z,101785.50
2022-08-24T13:33:55.277Z,101777.03
2022-08-24T13:36:30.929Z,101770.09
2022-08-24T13:39:06.210Z,101771.09
2022-08-24T13:41:55.417Z,101767.75
2022-08-24T13:44:43.740Z,101769.84
2022-08-24T13:47:25.958Z,101759.50
2022-08-24T13:50:14.905Z,101766.78
2022-08-24T13:52:50.401Z,101766.47
2022-08-24T13:55:35.101Z,101768.44
2022-08-24T13:58:26.913Z,101764.63
2022-08-24T14:01:01.462Z,101763.63
2022-08-24T14:03:53.845Z,101753.94
2022-08-24T14:06:32.133Z,101753.38
2022-08-24T14:09:16.593Z,101749.78
2022-08-24T14:12:15.334Z,101753.72
2022-08-24T14:15:12.976Z,101752.28
2022-08-24T14:18:01.048Z,101747.69
2022-08-24T14:21:00.365Z,101752.50
2022-08-24T14:23:47.112Z,101747.44
2022-08-24T14:26:38.699Z,101754.16
2022-08-24T14:29:20.075Z,101740.91
2022-08-24T14:31:59.986Z,101748.81
2022-08-24T14:34:53.447Z,101746.81
2022-08-24T14:37:23.771Z,101748.59
2022-08-24T14:40:17.151Z,101752.97
2022-08-24T14:42:56.070Z,101744.81
2022-08-24T14:45:52.546Z,101742.34
2022-08-24T14:48:56.777Z,101737.53
2022-08-24T14:51:29.277Z,101742.34
2022-08-24T14:54:32.732Z,101734.06
2022-08-24T14:57:16.062Z,101740.31
2022-08-24T14:59:42.581Z,101741.44
2022-08-24T15:02:31.893Z,101730.03
2022-08-24T15:05:23.527Z,101730.22
2022-08-24T15:08:09.000Z,101737.91
2022-08-24T15:10:52.992Z,101725.50
2022-08-24T15:13:40.540Z,101727.84
2022-08-24T15:16:18.779Z,101731.66
2022-08-24T15:19:02.793Z,101729.06
2022-08-24T15:21:56.811Z,101735.88
2022-08-24T15:24:39.797Z,101735.25
2022-08-24T15:27:18.635Z,101732.63
2022-08-24T15:29:54.982Z,101667.94
2022-08-24T15:32:28.008Z,101724.94
2022-08-24T15:34:58.335Z,101732.13
2022-08-24T15:37:37.415Z,101718.66
2022-08-24T15:40:16.654Z,101689.16
2022-08-24T15:42:43.374Z,101727.91
2022-08-24T15:45:10.729Z,101728.94
2022-08-24T15:47:45.693Z,101723.16
2022-08-24T15:50:39.666Z,101725.34
2022-08-24T15:53:28.354Z,101716.41
2022-08-24T15:55:55.638Z,101693.13
2022-08-24T15:58:38.905Z,101721.97
2022-08-24T16:01:30.041Z,101714.84
2022-08-24T16:04:05.164Z,101719.44
2022-08-24T16:06:31.525Z,101720.44
2022-08-24T16:09:13.082Z,101713.50
2022-08-24T16:11:51.339Z,101724.38
2022-08-24T16:14:46.885Z,101718.63
2022-08-24T16:17:27.663Z,101718.16
2022-08-24T16:19:58.488Z,101711.28
2022-08-24T16:22:32.961Z,101712.94
2022-08-24T16:25:13.061Z,101718.25
2022-08-24T16:27:58.950Z,101719.06
2022-08-24T16:31:01.013Z,101719.88
2022-08-24T16:33:39.915Z,101693.22
2022-08-24T16:36:17.710Z,101700.47
2022-08-24T16:38:49.657Z,101726.78
2022-08-24T16:41:19.234Z,101724.38
2022-08-24T16:43:46.435Z,101711.63
2022-08-24T16:46:18.093Z,101725.84
2022-08-24T16:48:44.629Z,101727.53
2022-08-24T16:51:11.069Z,101728.97
2022-08-24T16:53:37.597Z,101717.94
2022-08-24T16:56:04.728Z,101725.16
2022-08-24T16:58:34.092Z,101727.16
2022-08-24T17:01:01.709Z,101720.28
2022-08-24T17:03:28.714Z,101723.06
2022-08-24T17:05:56.164Z,101724.19
2022-08-24T17:08:23.114Z,101725.28
2022-08-24T17:10:49.654Z,101706.19
2022-08-24T17:13:33.049Z,101718.66
2022-08-24T17:16:03.714Z,101727.28
2022-08-24T17:18:30.383Z,101733.38
2022-08-24T17:20:58.325Z,101738.34
2022-08-24T17:23:24.909Z,101730.03
2022-08-24T17:25:51.416Z,101730.84
2022-08-24T17:28:20.456Z,101743.81
2022-08-24T17:30:50.937Z,101721.59
2022-08-24T17:33:18.766Z,101738.13
2022-08-24T17:35:45.573Z,101741.94
2022-08-24T17:38:12.153Z,101741.03
2022-08-24T17:40:38.582Z,101751.44
2022-08-24T17:43:05.518Z,101751.31
2022-08-24T17:45:32.150Z,101746.78
2022-08-24T17:47:58.666Z,101748.34
2022-08-24T17:50:25.244Z,101745.94
2022-08-24T17:52:59.080Z,101748.03
2022-08-24T17:55:27.936Z,101742.31
2022-08-24T17:57:54.635Z,101738.19
2022-08-24T18:00:21.283Z,101751.56
2022-08-24T18:02:47.715Z,101758.22
2022-08-24T18:05:14.877Z,101767.75
2022-08-24T18:07:53.555Z,101760.22
2022-08-24T18:10:25.351Z,101763.13
2022-08-24T18:12:53.108Z,101768.72
2022-08-24T18:15:19.634Z,101767.66
2022-08-24T18:17:51.487Z,101774.38
2022-08-24T18:20:24.774Z,101762.13
2022-08-24T18:23:03.217Z,101771.66
2022-08-24T18:25:35.795Z,101777.88
2022-08-24T18:28:02.665Z,101778.81
2022-08-24T18:30:30.937Z,101791.78
2022-08-24T18:33:01.656Z,101792.78
2022-08-24T18:35:30.711Z,101795.44
2022-08-24T18:37:57.298Z,101807.69
2022-08-24T18:40:24.319Z,101800.75
2022-08-24T18:42:51.072Z,101807.94
2022-08-24T18:45:17.994Z,101811.28
2022-08-24T18:47:44.507Z,101818.19
2022-08-24T18:50:21.118Z,101818.75
2022-08-24T18:52:47.799Z,101808.16
2022-08-24T18:55:15.068Z,101808.72
2022-08-24T18:57:41.563Z,101820.56
2022-08-24T19:00:10.253Z,101825.31
2022-08-24T19:02:36.986Z,101823.47
2022-08-24T19:05:13.064Z,101819.31
2022-08-24T19:07:44.402Z,101819.81
2022-08-24T19:10:14.617Z,101820.50
2022-08-24T19:12:51.509Z,101812.38
2022-08-24T19:15:35.709Z,101823.78
2022-08-24T19:18:05.967Z,101827.78
2022-08-24T19:20:34.200Z,101828.84
2022-08-24T19:23:08.431Z,101821.13
2022-08-24T19:25:36.265Z,101826.00
2022-08-24T19:28:04.198Z,101815.72
2022-08-24T19:30:31.091Z,101809.25
2022-08-24T19:32:58.453Z,101815.34
2022-08-24T19:35:24.946Z,101793.31
2022-08-24T19:37:51.590Z,101828.38
2022-08-24T19:40:20.891Z,101834.69
2022-08-24T19:42:50.951Z,101845.59
2022-08-24T19:45:41.242Z,101826.91
2022-08-24T19:48:08.206Z,101839.34
2022-08-24T19:50:35.984Z,101833.03
2022-08-24T19:53:04.032Z,101832.19
2022-08-24T19:55:30.902Z,101839.53
2022-08-24T19:58:18.689Z,101845.59
2022-08-24T20:00:51.485Z,101842.22
2022-08-24T20:03:18.754Z,101840.94
2022-08-24T20:05:45.829Z,101842.59
2022-08-24T20:08:12.995Z,101842.75
2022-08-24T20:10:39.665Z,101823.44
2022-08-24T20:13:06.459Z,101844.84
2022-08-24T20:15:33.517Z,101840.00
2022-08-24T20:18:00.338Z,101848.38
2022-08-24T20:20:27.918Z,101844.56
2022-08-24T20:22:54.980Z,101852.94
2022-08-24T20:25:21.545Z,101853.75
2022-08-24T20:27:48.989Z,101856.44
2022-08-24T20:30:17.973Z,101855.97
2022-08-24T20:32:44.438Z,101855.72
2022-08-24T20:35:14.979Z,101850.00
2022-08-24T20:37:42.216Z,101839.69
2022-08-24T20:40:12.952Z,101858.13
2022-08-24T20:42:41.467Z,101859.59
2022-08-24T20:45:10.430Z,101863.56
2022-08-24T20:47:50.198Z,101843.16
2022-08-24T20:50:24.543Z,101864.72
2022-08-24T20:52:52.987Z,101863.41
2022-08-24T20:55:21.743Z,101866.53
2022-08-24T20:57:51.692Z,101857.28
2022-08-24T21:00:20.485Z,101863.31
2022-08-24T21:02:47.334Z,101860.34
2022-08-24T21:05:14.200Z,101865.50
2022-08-24T21:07:47.578Z,101840.66
2022-08-24T21:10:14.103Z,101862.28
2022-08-24T21:12:40.583Z,101863.91
2022-08-24T21:15:10.799Z,101858.22
2022-08-24T21:17:37.303Z,101861.69
2022-08-24T21:20:04.250Z,101863.34
2022-08-24T21:22:30.716Z,101856.53
2022-08-24T21:24:57.212Z,101864.50
2022-08-24T21:27:24.229Z,101860.50
2022-08-24T21:29:50.697Z,101858.72
2022-08-24T21:32:35.860Z,101866.88
2022-08-24T21:35:02.478Z,101867.47
2022-08-24T21:37:29.654Z,101866.56
2022-08-24T21:39:57.201Z,101859.81
2022-08-24T21:42:23.748Z,101863.75
2022-08-24T21:44:50.305Z,101860.56
2022-08-24T21:47:17.454Z,101861.31
2022-08-24T21:49:43.985Z,101863.56
2022-08-24T21:52:10.414Z,101874.81
2022-08-24T21:54:36.906Z,101878.75
2022-08-24T21:57:05.861Z,101874.94
2022-08-24T21:59:34.092Z,101870.06
2022-08-24T22:02:01.582Z,101877.13
2022-08-24T22:04:28.062Z,101884.44
2022-08-24T22:06:54.552Z,101853.06
2022-08-24T22:09:22.432Z,101885.38
2022-08-24T22:11:50.027Z,101871.06
2022-08-24T22:14:16.762Z,101840.72
2022-08-24T22:16:44.764Z,101857.28
2022-08-24T22:19:12.169Z,101869.63
2022-08-24T22:21:45.897Z,101878.19
2022-08-24T22:24:14.192Z,101873.97
2022-08-24T22:26:41.505Z,101861.84
2022-08-24T22:29:09.814Z,101871.13
2022-08-24T22:31:39.746Z,101873.38
2022-08-24T22:34:10.348Z,101862.25
2022-08-24T22:36:37.668Z,101871.44
2022-08-24T22:39:04.889Z,101859.22
2022-08-24T22:41:32.008Z,101862.13
2022-08-24T22:44:17.566Z,101837.38
2022-08-24T22:46:44.413Z,101819.63
2022-08-24T22:49:11.581Z,101857.44
2022-08-24T22:51:38.359Z,101858.25
2022-08-24T22:54:05.148Z,101850.34
2022-08-24T22:56:43.979Z,101834.97
2022-08-24T22:59:16.504Z,101857.63
2022-08-24T23:01:45.411Z,101849.84
2022-08-24T23:04:15.893Z,101860.72
2022-08-24T23:06:42.786Z,101859.03
2022-08-24T23:09:09.922Z,101858.19
2022-08-24T23:11:37.286Z,101848.44
2022-08-24T23:14:07.203Z,101866.97
2022-08-24T23:16:36.454Z,101865.13
2022-08-24T23:19:22.312Z,101862.22
2022-08-24T23:21:49.160Z,101860.16
2022-08-24T23:24:15.794Z,101863.06
2022-08-24T23:26:43.182Z,101854.34
2022-08-24T23:29:12.643Z,101860.63
2022-08-24T23:31:40.220Z,101860.91
2022-08-24T23:34:08.038Z,101857.16
2022-08-24T23:36:35.397Z,101862.44
2022-08-24T23:39:02.682Z,101865.81
2022-08-24T23:41:32.643Z,101862.72
2022-08-24T23:44:10.914Z,101868.78
2022-08-24T23:46:38.370Z,101850.91
2022-08-24T23:49:05.595Z,101868.78
2022-08-24T23:51:32.123Z,101854.97
2022-08-24T23:53:59.031Z,101852.44
2022-08-24T23:56:32.075Z,101865.91
2022-08-24T23:59:01.016Z,101861.31
